Time;durP1;ratioP1;P1;durP2;ratioP2;P2;SDS_P1;SDS_P2;PMS_P1;PMS_P2;Temp;Humidity;BMP_temperature;BMP_pressure;BME280_temperature;BME280_humidity;BME280_pressure;Samples;Min_cycle;Max_cycle;Signal;HPM_P1;HPM_P2
2021/06/19 00:03:45;;;;;;;;;10.33;9.67;;;;;;;;8822642;40;10599;-61
2021/06/19 00:09:47;;;;;;;;;9.00;9.00;;;;;;;;8824305;40;10025;-60
2021/06/19 00:15:51;;;;;;;;;9.67;9.67;;;;;;;;8823835;40;10023;-60
2021/06/19 00:21:53;;;;;;;;;10.00;9.00;;;;;;;;8822723;40;9923;-61
2021/06/19 00:27:55;;;;;;;;;11.00;9.33;;;;;;;;8823251;40;9940;-59
2021/06/19 00:33:58;;;;;;;;;9.00;9.00;;;;;;;;8822674;40;11021;-60
2021/06/19 00:40:01;;;;;;;;;9.67;8.33;;;;;;;;8823725;40;11074;-61
2021/06/19 00:46:03;;;;;;;;;10.00;7.33;;;;;;;;8822766;40;9936;-61
2021/06/19 00:52:05;;;;;;;;;8.33;5.00;;;;;;;;8823400;40;9923;-60
2021/06/19 00:58:07;;;;;;;;;10.67;9.00;;;;;;;;8822925;40;9990;-61
2021/06/19 01:04:09;;;;;;;;;8.33;8.33;;;;;;;;8822499;40;9899;-60
2021/06/19 01:10:12;;;;;;;;;8.00;7.33;;;;;;;;8823189;40;9964;-60
2021/06/19 01:16:16;;;;;;;;;9.00;6.33;;;;;;;;8825499;40;9934;-61
2021/06/19 01:22:18;;;;;;;;;3.67;3.67;;;;;;;;8826598;40;9910;-60
2021/06/19 01:28:20;;;;;;;;;7.00;6.00;;;;;;;;8826377;40;9993;-61
2021/06/19 01:34:22;;;;;;;;;1.33;1.33;;;;;;;;8825279;40;9925;-60
2021/06/19 01:40:27;;;;;;;;;3.00;3.00;;;;;;;;8834617;40;10440;-60
2021/06/19 01:46:30;;;;;;;;;3.33;3.33;;;;;;;;8824618;40;9972;-61
2021/06/19 01:52:32;;;;;;;;;4.33;4.33;;;;;;;;8826141;40;9996;-61
2021/06/19 01:58:34;;;;;;;;;4.67;3.33;;;;;;;;8824772;40;10417;-61
2021/06/19 02:04:36;;;;;;;;;3.00;3.00;;;;;;;;8825219;40;9880;-60
2021/06/19 02:10:41;;;;;;;;;2.00;2.00;;;;;;;;8826315;40;9976;-61
2021/06/19 02:16:44;;;;;;;;;1.00;1.00;;;;;;;;8824927;40;9976;-61
2021/06/19 02:22:45;;;;;;;;;3.67;3.67;;;;;;;;8825804;40;9888;-59
2021/06/19 02:28:47;;;;;;;;;5.67;5.33;;;;;;;;8824861;40;9937;-61
2021/06/19 02:34:50;;;;;;;;;4.00;4.00;;;;;;;;8824927;40;10216;-59
2021/06/19 02:40:52;;;;;;;;;2.67;2.67;;;;;;;;8825551;40;9968;-60
2021/06/19 02:46:54;;;;;;;;;5.00;3.67;;;;;;;;8824128;40;9939;-60
2021/06/19 02:52:58;;;;;;;;;3.00;3.00;;;;;;;;8824938;40;10460;-61
2021/06/19 02:59:02;;;;;;;;;4.00;4.00;;;;;;;;8824793;40;9885;-60
2021/06/19 03:05:06;;;;;;;;;4.00;3.67;;;;;;;;8824180;40;9944;-60
2021/06/19 03:11:08;;;;;;;;;2.67;2.67;;;;;;;;8825350;40;10082;-61
2021/06/19 03:17:10;;;;;;;;;4.00;4.00;;;;;;;;8824604;40;10469;-60
2021/06/19 03:23:12;;;;;;;;;3.33;3.33;;;;;;;;8824933;40;10056;-61
2021/06/19 03:29:14;;;;;;;;;4.00;2.67;;;;;;;;8824673;40;9980;-60
2021/06/19 03:35:17;;;;;;;;;3.00;3.00;;;;;;;;8823770;40;9897;-61
2021/06/19 03:41:19;;;;;;;;;4.00;4.00;;;;;;;;8825753;40;9971;-60
2021/06/19 03:47:21;;;;;;;;;9.00;3.67;;;;;;;;8822467;40;9994;-60
2021/06/19 03:53:23;;;;;;;;;5.00;3.33;;;;;;;;8824483;40;10467;-60
2021/06/19 03:59:25;;;;;;;;;3.33;2.67;;;;;;;;8823446;40;10543;-61
2021/06/19 04:05:27;;;;;;;;;3.25;3.25;;;;;;;;8823750;40;10677;-60
2021/06/19 04:11:29;;;;;;;;;2.00;2.00;;;;;;;;8824274;40;10708;-62
2021/06/19 04:17:31;;;;;;;;;1.33;1.33;;;;;;;;8822959;40;10599;-61
2021/06/19 04:23:34;;;;;;;;;2.33;2.33;;;;;;;;8823029;40;9909;-60
2021/06/19 04:29:37;;;;;;;;;2.00;2.00;;;;;;;;8823545;40;10699;-60
2021/06/19 04:35:39;;;;;;;;;3.00;3.00;;;;;;;;8824054;40;10876;-61
2021/06/19 04:48:13;;;;;;;;;3.00;3.00;;;;;;;;8815977;40;10582;-60
2021/06/19 04:54:15;;;;;;;;;3.00;3.00;;;;;;;;8823356;40;10003;-61
2021/06/19 05:00:17;;;;;;;;;3.50;3.00;;;;;;;;8823424;40;10755;-60
2021/06/19 05:06:20;;;;;;;;;3.00;3.00;;;;;;;;8822334;40;10546;-61
2021/06/19 05:12:22;;;;;;;;;3.00;3.00;;;;;;;;8822753;40;11896;-60
2021/06/19 05:18:23;;;;;;;;;5.25;3.25;;;;;;;;8822193;40;10649;-60
2021/06/19 05:24:26;;;;;;;;;2.50;1.75;;;;;;;;8823867;40;10487;-61
2021/06/19 05:30:28;;;;;;;;;3.00;3.00;;;;;;;;8822047;40;10498;-59
2021/06/19 05:36:30;;;;;;;;;2.25;2.25;;;;;;;;8821894;40;10619;-61
2021/06/19 05:42:32;;;;;;;;;2.25;2.25;;;;;;;;8822523;40;10764;-61
2021/06/19 05:48:34;;;;;;;;;3.75;3.50;;;;;;;;8822367;40;10709;-60
2021/06/19 05:54:37;;;;;;;;;3.25;3.00;;;;;;;;8821196;40;10646;-61
2021/06/19 06:00:39;;;;;;;;;3.00;2.00;;;;;;;;8824130;40;10674;-63
2021/06/19 06:06:41;;;;;;;;;5.00;5.00;;;;;;;;8824942;40;10589;-61
2021/06/19 06:12:43;;;;;;;;;2.50;2.50;;;;;;;;8826251;40;10585;-60
2021/06/19 06:18:46;;;;;;;;;4.25;3.25;;;;;;;;8824126;40;10784;-61
2021/06/19 06:24:48;;;;;;;;;6.00;5.25;;;;;;;;8825140;40;10630;-61
2021/06/19 06:30:50;;;;;;;;;6.25;5.00;;;;;;;;8825806;40;10601;-62
2021/06/19 06:36:53;;;;;;;;;4.75;4.75;;;;;;;;8825617;40;10526;-62
2021/06/19 06:42:55;;;;;;;;;5.50;5.50;;;;;;;;8825649;40;11055;-61
2021/06/19 06:48:57;;;;;;;;;4.00;3.50;;;;;;;;8824669;40;10510;-61
2021/06/19 06:54:59;;;;;;;;;4.00;4.00;;;;;;;;8816022;40;10499;-61
2021/06/19 07:01:01;;;;;;;;;3.75;3.75;;;;;;;;8825552;40;10724;-61
2021/06/19 07:07:03;;;;;;;;;3.50;3.50;;;;;;;;8822808;40;10493;-61
2021/06/19 07:13:06;;;;;;;;;2.75;2.75;;;;;;;;8826272;40;10548;-61
2021/06/19 07:19:08;;;;;;;;;3.00;3.00;;;;;;;;8823483;40;11128;-61
2021/06/19 07:25:11;;;;;;;;;3.75;3.75;;;;;;;;8824104;40;10643;-61
2021/06/19 07:31:13;;;;;;;;;2.50;2.50;;;;;;;;8825914;40;10496;-61
2021/06/19 07:37:16;;;;;;;;;3.25;2.75;;;;;;;;8824742;40;10484;-60
2021/06/19 07:43:18;;;;;;;;;3.25;3.25;;;;;;;;8825457;40;11140;-62
2021/06/19 07:49:20;;;;;;;;;5.00;3.25;;;;;;;;8824206;40;10546;-61
2021/06/19 07:55:22;;;;;;;;;6.75;6.75;;;;;;;;8823668;40;10813;-61
2021/06/19 08:01:24;;;;;;;;;7.00;7.00;;;;;;;;8824187;40;10628;-61
2021/06/19 08:07:26;;;;;;;;;4.00;4.00;;;;;;;;8824486;40;10516;-61
2021/06/19 08:13:28;;;;;;;;;6.75;5.00;;;;;;;;8824477;40;10510;-61
2021/06/19 08:19:34;;;;;;;;;5.25;5.00;;;;;;;;8824252;40;10487;-62
2021/06/19 08:25:39;;;;;;;;;6.25;6.25;;;;;;;;8823991;40;10778;-61
2021/06/19 08:31:41;;;;;;;;;5.75;5.50;;;;;;;;8822735;40;10635;-61
2021/06/19 08:37:44;;;;;;;;;5.25;4.00;;;;;;;;8822503;40;11379;-62
2021/06/19 08:43:46;;;;;;;;;5.25;3.75;;;;;;;;8823432;40;10647;-60
2021/06/19 08:49:48;;;;;;;;;4.00;4.00;;;;;;;;8823357;40;10514;-61
2021/06/19 08:55:51;;;;;;;;;4.25;4.25;;;;;;;;8823074;40;10435;-61
2021/06/19 09:01:53;;;;;;;;;3.25;3.00;;;;;;;;8824626;40;10544;-63
2021/06/19 09:07:57;;;;;;;;;5.50;3.25;;;;;;;;8798064;40;10505;-61
2021/06/19 09:14:04;;;;;;;;;2.75;2.75;;;;;;;;8798499;40;10588;-61
2021/06/19 09:20:07;;;;;;;;;1.25;1.25;;;;;;;;8798121;40;10606;-61
2021/06/19 09:26:15;;;;;;;;;4.50;4.50;;;;;;;;8797528;40;10401;-62
2021/06/19 09:32:26;;;;;;;;;3.25;3.25;;;;;;;;8798232;40;10599;-61
2021/06/19 09:38:28;;;;;;;;;2.50;2.50;;;;;;;;8800673;40;10978;-61
2021/06/19 09:44:42;;;;;;;;;5.00;3.25;;;;;;;;8801821;40;10458;-62
2021/06/19 09:50:44;;;;;;;;;5.25;5.25;;;;;;;;8783186;40;10426;-62
2021/06/19 09:56:54;;;;;;;;;4.75;3.25;;;;;;;;8800841;40;10589;-61
2021/06/19 10:03:03;;;;;;;;;5.50;5.50;;;;;;;;8805438;40;10319;-62
2021/06/19 10:09:10;;;;;;;;;5.50;5.50;;;;;;;;8825201;40;10396;-62
2021/06/19 10:15:14;;;;;;;;;5.00;5.00;;;;;;;;8827110;40;10329;-63
2021/06/19 10:21:16;;;;;;;;;4.25;4.25;;;;;;;;8824765;40;10475;-63
2021/06/19 10:27:18;;;;;;;;;6.50;6.50;;;;;;;;8825480;40;10341;-62
2021/06/19 10:33:26;;;;;;;;;5.75;5.00;;;;;;;;8825405;40;10315;-62
2021/06/19 10:39:42;;;;;;;;;4.50;4.50;;;;;;;;8825191;40;10789;-64
2021/06/19 10:45:46;;;;;;;;;9.25;6.00;;;;;;;;8825455;40;10624;-61
2021/06/19 10:51:49;;;;;;;;;5.00;3.75;;;;;;;;8823448;40;10355;-64
2021/06/19 10:58:00;;;;;;;;;6.75;5.75;;;;;;;;8825079;40;10341;-64
2021/06/19 11:04:02;;;;;;;;;4.75;4.75;;;;;;;;8824658;40;10398;-62
2021/06/19 11:10:04;;;;;;;;;6.00;4.75;;;;;;;;8825067;40;10422;-62
2021/06/19 11:16:32;;;;;;;;;7.50;7.00;;;;;;;;8825472;40;10344;-62
2021/06/19 11:22:43;;;;;;;;;6.00;6.00;;;;;;;;8824708;40;10382;-62
2021/06/19 11:28:45;;;;;;;;;4.50;4.50;;;;;;;;8825056;40;10287;-62
2021/06/19 11:34:48;;;;;;;;;5.00;5.00;;;;;;;;8824795;40;10289;-61
2021/06/19 11:40:50;;;;;;;;;1.75;1.00;;;;;;;;8824023;40;10296;-62
2021/06/19 11:46:55;;;;;;;;;8.25;6.25;;;;;;;;8823794;40;10318;-62
2021/06/19 11:53:31;;;;;;;;;8.25;6.00;;;;;;;;8823835;40;10447;-62
2021/06/19 11:59:33;;;;;;;;;8.00;6.50;;;;;;;;8824620;40;10441;-61
2021/06/19 12:05:35;;;;;;;;;7.00;7.00;;;;;;;;8824348;40;10373;-62
2021/06/19 12:11:39;;;;;;;;;13.50;10.25;;;;;;;;8824848;40;10630;-62
2021/06/19 12:17:41;;;;;;;;;12.00;12.00;;;;;;;;8823810;40;10489;-61
2021/06/19 12:23:45;;;;;;;;;10.25;9.25;;;;;;;;8822952;40;10488;-62
2021/06/19 12:29:52;;;;;;;;;7.50;6.50;;;;;;;;8825016;40;10375;-62
2021/06/19 12:35:55;;;;;;;;;8.00;8.00;;;;;;;;8822564;40;10352;-61
2021/06/19 12:41:57;;;;;;;;;8.50;8.50;;;;;;;;8823670;40;10365;-62
2021/06/19 12:48:04;;;;;;;;;8.00;8.00;;;;;;;;8822876;40;10305;-62
2021/06/19 12:54:21;;;;;;;;;10.75;10.00;;;;;;;;8822365;40;10646;-63
2021/06/19 13:00:37;;;;;;;;;11.75;11.75;;;;;;;;8813687;40;11042;-62
2021/06/19 13:06:45;;;;;;;;;18.33;17.33;;;;;;;;8822813;40;10419;-63
2021/06/19 13:12:50;;;;;;;;;15.00;14.67;;;;;;;;8823403;40;10304;-63
2021/06/19 13:19:01;;;;;;;;;17.67;17.33;;;;;;;;8821327;40;10052;-63
2021/06/19 13:25:04;;;;;;;;;8.33;8.33;;;;;;;;8823223;40;10823;-62
2021/06/19 13:31:13;;;;;;;;;15.67;14.33;;;;;;;;8823469;40;10412;-61
2021/06/19 13:37:15;;;;;;;;;18.33;16.33;;;;;;;;8821956;40;10134;-63
2021/06/19 13:43:16;;;;;;;;;18.33;16.67;;;;;;;;8822456;40;9997;-62
2021/06/19 13:49:19;;;;;;;;;17.33;14.33;;;;;;;;8820327;40;10423;-61
2021/06/19 13:55:26;;;;;;;;;15.50;15.50;;;;;;;;8822885;40;11141;-62
2021/06/19 14:01:28;;;;;;;;;16.25;16.00;;;;;;;;8823120;40;10827;-63
2021/06/19 14:07:30;;;;;;;;;18.50;16.75;;;;;;;;8822412;40;10817;-61
2021/06/19 14:13:32;;;;;;;;;15.50;14.75;;;;;;;;8822276;40;11323;-61
2021/06/19 14:19:34;;;;;;;;;9.25;7.00;;;;;;;;8820840;40;10492;-62
2021/06/19 14:25:36;;;;;;;;;11.00;11.00;;;;;;;;8826696;40;10536;-62
2021/06/19 14:31:38;;;;;;;;;7.00;7.00;;;;;;;;8825171;40;10602;-63
2021/06/19 14:37:41;;;;;;;;;4.25;3.50;;;;;;;;8825821;40;10737;-61
2021/06/19 14:43:43;;;;;;;;;8.25;6.75;;;;;;;;8825391;40;10597;-63
2021/06/19 14:49:45;;;;;;;;;8.00;6.00;;;;;;;;8813568;40;10524;-63
2021/06/19 14:55:47;;;;;;;;;6.25;6.25;;;;;;;;8830465;40;10618;-64
2021/06/19 15:01:49;;;;;;;;;3.75;3.75;;;;;;;;8824286;40;10648;-63
2021/06/19 15:07:51;;;;;;;;;4.50;3.75;;;;;;;;8824728;40;10465;-64
2021/06/19 15:13:53;;;;;;;;;11.00;10.75;;;;;;;;8824679;40;10502;-60
2021/06/19 15:19:55;;;;;;;;;11.75;11.50;;;;;;;;8823830;40;10724;-62
2021/06/19 15:25:57;;;;;;;;;9.50;9.50;;;;;;;;8824554;40;10628;-62
2021/06/19 15:31:59;;;;;;;;;13.50;10.75;;;;;;;;8823180;40;10730;-62
2021/06/19 15:38:01;;;;;;;;;12.00;11.50;;;;;;;;8829600;40;10703;-63
2021/06/19 15:44:04;;;;;;;;;15.50;14.50;;;;;;;;8823696;40;11362;-62
2021/06/19 15:50:07;;;;;;;;;4.75;4.75;;;;;;;;8823444;40;10804;-63
2021/06/19 15:56:09;;;;;;;;;17.75;14.75;;;;;;;;8824201;40;10957;-63
2021/06/19 16:02:11;;;;;;;;;12.25;11.50;;;;;;;;8823629;40;10637;-66
2021/06/19 16:08:13;;;;;;;;;13.75;13.00;;;;;;;;8823513;40;10777;-63
2021/06/19 16:14:16;;;;;;;;;12.50;11.75;;;;;;;;8824529;40;10696;-64
2021/06/19 16:20:18;;;;;;;;;10.75;10.75;;;;;;;;8823017;40;10576;-62
2021/06/19 16:26:20;;;;;;;;;11.25;11.00;;;;;;;;8824568;40;10535;-64
2021/06/19 16:32:22;;;;;;;;;17.50;15.00;;;;;;;;8824606;40;10678;-62
2021/06/19 16:38:24;;;;;;;;;11.00;11.00;;;;;;;;8822994;40;10525;-63
2021/06/19 16:44:26;;;;;;;;;9.50;9.50;;;;;;;;8823429;40;10511;-64
2021/06/19 16:50:29;;;;;;;;;13.50;11.00;;;;;;;;8822669;40;10630;-61
2021/06/19 16:56:31;;;;;;;;;7.25;7.25;;;;;;;;8823554;40;10517;-63
2021/06/19 17:02:34;;;;;;;;;11.00;11.00;;;;;;;;8830447;40;10595;-62
2021/06/19 17:08:37;;;;;;;;;12.75;10.75;;;;;;;;8822266;40;10624;-61
2021/06/19 17:14:39;;;;;;;;;10.25;9.50;;;;;;;;8822107;40;11141;-64
2021/06/19 17:20:40;;;;;;;;;13.25;12.25;;;;;;;;8821936;40;10891;-63
2021/06/19 17:26:42;;;;;;;;;10.25;10.25;;;;;;;;8822321;40;10542;-62
2021/06/19 17:32:45;;;;;;;;;15.00;9.50;;;;;;;;8823381;40;10728;-63
2021/06/19 17:38:46;;;;;;;;;12.00;11.00;;;;;;;;8821949;40;10872;-60
2021/06/19 17:44:48;;;;;;;;;12.50;10.50;;;;;;;;8822820;40;11977;-62
2021/06/19 17:50:51;;;;;;;;;11.00;10.75;;;;;;;;8821649;40;11321;-61
2021/06/19 17:56:53;;;;;;;;;10.00;10.00;;;;;;;;8823994;40;10654;-63
2021/06/19 18:02:55;;;;;;;;;10.25;10.25;;;;;;;;8825624;40;10980;-62
2021/06/19 18:08:57;;;;;;;;;11.00;11.00;;;;;;;;8824516;40;10546;-60
2021/06/19 18:14:59;;;;;;;;;9.75;9.25;;;;;;;;8826106;40;10992;-63
2021/06/19 18:21:03;;;;;;;;;12.00;12.00;;;;;;;;8825917;40;10995;-63
2021/06/19 18:27:09;;;;;;;;;12.33;12.00;;;;;;;;8824511;40;10347;-61
2021/06/19 18:33:12;;;;;;;;;18.67;18.67;;;;;;;;8825848;40;10487;-63
2021/06/19 18:39:14;;;;;;;;;14.00;12.33;;;;;;;;8824658;40;10270;-64
2021/06/19 18:45:17;;;;;;;;;14.33;14.33;;;;;;;;8826656;40;10441;-62
2021/06/19 18:51:19;;;;;;;;;15.00;14.00;;;;;;;;8823743;40;10785;-61
2021/06/19 18:57:23;;;;;;;;;15.00;15.00;;;;;;;;8825734;40;10041;-62
2021/06/19 19:03:26;;;;;;;;;14.67;14.67;;;;;;;;8786685;40;10005;-61
2021/06/19 19:09:30;;;;;;;;;14.33;10.67;;;;;;;;8823804;40;10599;-62
2021/06/19 19:15:32;;;;;;;;;14.67;14.67;;;;;;;;8823941;40;10484;-61
2021/06/19 19:21:33;;;;;;;;;18.67;16.33;;;;;;;;8822361;40;10089;-62
2021/06/19 19:27:35;;;;;;;;;21.00;17.33;;;;;;;;8824572;40;10817;-62
2021/06/19 19:33:37;;;;;;;;;16.67;16.00;;;;;;;;8825250;40;10011;-62
2021/06/19 19:39:41;;;;;;;;;18.67;17.67;;;;;;;;8824202;40;10167;-62
2021/06/19 19:45:43;;;;;;;;;16.33;14.33;;;;;;;;8824311;40;10620;-62
2021/06/19 19:51:45;;;;;;;;;16.33;15.67;;;;;;;;8823537;40;10414;-61
2021/06/19 19:57:47;;;;;;;;;16.00;15.00;;;;;;;;8824315;40;10017;-63
2021/06/19 20:03:49;;;;;;;;;17.67;13.67;;;;;;;;8823841;40;10052;-61
2021/06/19 20:09:50;;;;;;;;;16.67;16.67;;;;;;;;8823130;40;10048;-61
2021/06/19 20:15:52;;;;;;;;;15.00;15.00;;;;;;;;8823452;40;9953;-62
2021/06/19 20:21:54;;;;;;;;;20.00;18.67;;;;;;;;8822298;40;10115;-62
2021/06/19 20:27:56;;;;;;;;;16.00;16.00;;;;;;;;8822581;40;10541;-62
2021/06/19 20:34:00;;;;;;;;;16.00;13.67;;;;;;;;8823525;40;10574;-59
2021/06/19 20:40:04;;;;;;;;;12.67;12.67;;;;;;;;8823676;40;10173;-61
2021/06/19 20:46:06;;;;;;;;;17.00;14.67;;;;;;;;8823649;40;10289;-62
2021/06/19 20:52:08;;;;;;;;;12.33;12.33;;;;;;;;8822505;40;10099;-62
2021/06/19 20:58:10;;;;;;;;;16.00;14.00;;;;;;;;8822235;40;10004;-63
2021/06/19 21:04:13;;;;;;;;;13.00;13.00;;;;;;;;8823406;40;10005;-61
2021/06/19 21:10:16;;;;;;;;;14.33;14.33;;;;;;;;8823791;40;10098;-61
2021/06/19 21:16:18;;;;;;;;;13.00;11.00;;;;;;;;8823058;40;10762;-62
2021/06/19 21:22:20;;;;;;;;;11.67;11.67;;;;;;;;8822290;40;9922;-62
2021/06/19 21:28:22;;;;;;;;;12.00;11.33;;;;;;;;8822424;40;10010;-62
2021/06/19 21:34:24;;;;;;;;;13.67;13.00;;;;;;;;8827004;40;10146;-62
2021/06/19 21:40:27;;;;;;;;;10.67;9.00;;;;;;;;8825333;40;9954;-61
2021/06/19 21:46:29;;;;;;;;;13.00;11.67;;;;;;;;8826174;40;10231;-61
2021/06/19 21:52:31;;;;;;;;;13.33;13.33;;;;;;;;8824676;40;9947;-60
2021/06/19 21:58:33;;;;;;;;;18.67;15.00;;;;;;;;8824462;40;10032;-61
2021/06/19 22:04:41;;;;;;;;;12.00;12.00;;;;;;;;8826011;40;10299;-60
2021/06/19 22:10:45;;;;;;;;;12.00;12.00;;;;;;;;8825037;40;9931;-61
2021/06/19 22:16:46;;;;;;;;;16.00;16.00;;;;;;;;8825486;40;10068;-60
2021/06/19 22:22:49;;;;;;;;;11.67;11.00;;;;;;;;8824724;40;10778;-61
2021/06/19 22:28:51;;;;;;;;;15.00;14.00;;;;;;;;8825414;40;10120;-62
2021/06/19 22:34:53;;;;;;;;;16.67;15.00;;;;;;;;8824784;40;10555;-61
2021/06/19 22:40:56;;;;;;;;;14.33;14.00;;;;;;;;8824336;40;10093;-61
2021/06/19 22:46:58;;;;;;;;;14.00;14.00;;;;;;;;8826211;40;10031;-61
2021/06/19 22:53:00;;;;;;;;;15.33;15.00;;;;;;;;8825328;40;10260;-60
2021/06/19 22:59:02;;;;;;;;;12.33;12.33;;;;;;;;8824545;40;10001;-61
2021/06/19 23:05:05;;;;;;;;;15.33;15.00;;;;;;;;8824681;40;10577;-62
2021/06/19 23:11:07;;;;;;;;;14.33;13.67;;;;;;;;8824299;40;10032;-62
2021/06/19 23:17:10;;;;;;;;;16.33;16.33;;;;;;;;8826161;40;10102;-61
2021/06/19 23:23:12;;;;;;;;;12.00;12.00;;;;;;;;8823895;40;9994;-61
2021/06/19 23:29:14;;;;;;;;;17.00;15.67;;;;;;;;8824293;40;10604;-62
2021/06/19 23:35:16;;;;;;;;;13.67;12.67;;;;;;;;8824899;40;10077;-61
2021/06/19 23:41:18;;;;;;;;;15.67;14.33;;;;;;;;8823959;40;10020;-60
2021/06/19 23:47:19;;;;;;;;;16.33;15.67;;;;;;;;8824256;40;10661;-61
2021/06/19 23:53:21;;;;;;;;;16.00;16.00;;;;;;;;8823036;40;10550;-61
2021/06/19 23:59:23;;;;;;;;;16.67;14.33;;;;;;;;8824334;40;10838;-60
